sensor_id;sensor_type;location;lat;lon;timestamp;P1;durP1;ratioP1;P2;durP2;ratioP2
23567;SDS011;11962;50.838;4.430;2023-07-29T00:01:59;1.88;;;1.27;;
23567;SDS011;11962;50.838;4.430;2023-07-29T00:04:24;2.28;;;1.52;;
23567;SDS011;11962;50.838;4.430;2023-07-29T00:06:50;3.35;;;1.20;;
23567;SDS011;11962;50.838;4.430;2023-07-29T00:09:16;1.58;;;1.20;;
23567;SDS011;11962;50.838;4.430;2023-07-29T00:11:42;2.03;;;1.00;;
23567;SDS011;11962;50.838;4.430;2023-07-29T00:14:07;4.00;;;1.10;;
23567;SDS011;11962;50.838;4.430;2023-07-29T00:16:33;1.75;;;1.10;;
23567;SDS011;11962;50.838;4.430;2023-07-29T00:18:59;2.80;;;1.17;;
23567;SDS011;11962;50.838;4.430;2023-07-29T00:21:24;2.75;;;1.10;;
23567;SDS011;11962;50.838;4.430;2023-07-29T00:23:50;2.42;;;1.05;;
23567;SDS011;11962;50.838;4.430;2023-07-29T00:26:16;1.38;;;1.17;;
23567;SDS011;11962;50.838;4.430;2023-07-29T00:28:42;1.27;;;1.08;;
23567;SDS011;11962;50.838;4.430;2023-07-29T00:31:08;2.15;;;1.00;;
23567;SDS011;11962;50.838;4.430;2023-07-29T00:33:34;2.53;;;1.20;;
23567;SDS011;11962;50.838;4.430;2023-07-29T00:35:59;2.55;;;1.45;;
23567;SDS011;11962;50.838;4.430;2023-07-29T00:38:28;1.67;;;1.05;;
23567;SDS011;11962;50.838;4.430;2023-07-29T00:40:54;1.92;;;1.23;;
23567;SDS011;11962;50.838;4.430;2023-07-29T00:43:25;1.55;;;1.20;;
23567;SDS011;11962;50.838;4.430;2023-07-29T00:45:51;1.52;;;1.00;;
23567;SDS011;11962;50.838;4.430;2023-07-29T00:48:17;1.75;;;1.20;;
23567;SDS011;11962;50.838;4.430;2023-07-29T00:50:43;1.52;;;1.20;;
23567;SDS011;11962;50.838;4.430;2023-07-29T00:53:09;4.90;;;1.33;;
23567;SDS011;11962;50.838;4.430;2023-07-29T00:55:35;1.50;;;1.05;;
23567;SDS011;11962;50.838;4.430;2023-07-29T00:58:02;4.30;;;1.40;;
23567;SDS011;11962;50.838;4.430;2023-07-29T01:00:28;2.67;;;1.10;;
23567;SDS011;11962;50.838;4.430;2023-07-29T01:02:54;1.40;;;1.13;;
23567;SDS011;11962;50.838;4.430;2023-07-29T01:05:20;4.88;;;1.20;;
23567;SDS011;11962;50.838;4.430;2023-07-29T01:07:56;2.53;;;1.17;;
23567;SDS011;11962;50.838;4.430;2023-07-29T01:10:40;1.95;;;1.10;;
23567;SDS011;11962;50.838;4.430;2023-07-29T01:13:14;2.13;;;1.25;;
23567;SDS011;11962;50.838;4.430;2023-07-29T01:18:22;4.35;;;1.50;;
23567;SDS011;11962;50.838;4.430;2023-07-29T01:20:53;4.15;;;1.40;;
23567;SDS011;11962;50.838;4.430;2023-07-29T01:23:24;2.53;;;1.30;;
23567;SDS011;11962;50.838;4.430;2023-07-29T01:25:51;6.30;;;1.45;;
23567;SDS011;11962;50.838;4.430;2023-07-29T01:28:17;2.10;;;1.30;;
23567;SDS011;11962;50.838;4.430;2023-07-29T01:30:42;1.83;;;1.40;;
23567;SDS011;11962;50.838;4.430;2023-07-29T01:33:14;3.78;;;2.00;;
23567;SDS011;11962;50.838;4.430;2023-07-29T01:35:50;4.28;;;1.67;;
23567;SDS011;11962;50.838;4.430;2023-07-29T01:38:35;3.85;;;1.42;;
23567;SDS011;11962;50.838;4.430;2023-07-29T01:41:03;3.65;;;1.38;;
23567;SDS011;11962;50.838;4.430;2023-07-29T01:43:31;4.28;;;1.70;;
23567;SDS011;11962;50.838;4.430;2023-07-29T01:45:58;1.65;;;1.27;;
23567;SDS011;11962;50.838;4.430;2023-07-29T01:48:25;2.17;;;1.13;;
23567;SDS011;11962;50.838;4.430;2023-07-29T01:50:52;2.60;;;1.33;;
23567;SDS011;11962;50.838;4.430;2023-07-29T01:53:18;1.40;;;1.17;;
23567;SDS011;11962;50.838;4.430;2023-07-29T01:55:44;2.10;;;1.20;;
23567;SDS011;11962;50.838;4.430;2023-07-29T01:58:10;2.95;;;1.60;;
23567;SDS011;11962;50.838;4.430;2023-07-29T02:00:36;2.58;;;1.48;;
23567;SDS011;11962;50.838;4.430;2023-07-29T02:03:02;2.03;;;1.30;;
23567;SDS011;11962;50.838;4.430;2023-07-29T02:05:27;6.63;;;1.45;;
23567;SDS011;11962;50.838;4.430;2023-07-29T02:07:53;2.10;;;1.48;;
23567;SDS011;11962;50.838;4.430;2023-07-29T02:10:19;5.07;;;1.50;;
23567;SDS011;11962;50.838;4.430;2023-07-29T02:12:45;4.10;;;1.70;;
23567;SDS011;11962;50.838;4.430;2023-07-29T02:15:10;3.53;;;1.40;;
23567;SDS011;11962;50.838;4.430;2023-07-29T02:17:36;3.90;;;1.80;;
23567;SDS011;11962;50.838;4.430;2023-07-29T02:20:02;1.65;;;1.25;;
23567;SDS011;11962;50.838;4.430;2023-07-29T02:22:29;2.35;;;1.33;;
23567;SDS011;11962;50.838;4.430;2023-07-29T02:24:55;4.57;;;1.60;;
23567;SDS011;11962;50.838;4.430;2023-07-29T02:27:20;3.08;;;1.52;;
23567;SDS011;11962;50.838;4.430;2023-07-29T02:29:46;3.90;;;1.48;;
23567;SDS011;11962;50.838;4.430;2023-07-29T02:32:12;3.33;;;1.50;;
23567;SDS011;11962;50.838;4.430;2023-07-29T02:34:38;4.10;;;1.70;;
23567;SDS011;11962;50.838;4.430;2023-07-29T02:37:03;5.80;;;1.58;;
23567;SDS011;11962;50.838;4.430;2023-07-29T02:39:30;1.63;;;1.30;;
23567;SDS011;11962;50.838;4.430;2023-07-29T02:41:56;5.00;;;1.60;;
23567;SDS011;11962;50.838;4.430;2023-07-29T02:44:23;2.55;;;1.55;;
23567;SDS011;11962;50.838;4.430;2023-07-29T02:46:49;3.53;;;1.23;;
23567;SDS011;11962;50.838;4.430;2023-07-29T02:49:17;2.20;;;1.30;;
23567;SDS011;11962;50.838;4.430;2023-07-29T02:51:43;2.97;;;1.63;;
23567;SDS011;11962;50.838;4.430;2023-07-29T02:54:08;2.80;;;1.50;;
23567;SDS011;11962;50.838;4.430;2023-07-29T02:56:34;3.30;;;1.50;;
23567;SDS011;11962;50.838;4.430;2023-07-29T02:59:00;2.90;;;1.60;;
23567;SDS011;11962;50.838;4.430;2023-07-29T03:01:26;2.55;;;1.30;;
23567;SDS011;11962;50.838;4.430;2023-07-29T03:03:52;3.33;;;1.50;;
23567;SDS011;11962;50.838;4.430;2023-07-29T03:06:18;3.08;;;1.33;;
23567;SDS011;11962;50.838;4.430;2023-07-29T03:08:44;2.67;;;1.50;;
23567;SDS011;11962;50.838;4.430;2023-07-29T03:11:13;1.75;;;1.42;;
23567;SDS011;11962;50.838;4.430;2023-07-29T03:13:40;4.40;;;1.50;;
23567;SDS011;11962;50.838;4.430;2023-07-29T03:16:16;2.20;;;1.58;;
23567;SDS011;11962;50.838;4.430;2023-07-29T03:18:42;3.10;;;1.60;;
23567;SDS011;11962;50.838;4.430;2023-07-29T03:21:09;3.08;;;1.20;;
23567;SDS011;11962;50.838;4.430;2023-07-29T03:23:35;5.20;;;1.60;;
23567;SDS011;11962;50.838;4.430;2023-07-29T03:26:02;3.17;;;1.42;;
23567;SDS011;11962;50.838;4.430;2023-07-29T03:28:35;2.63;;;1.52;;
23567;SDS011;11962;50.838;4.430;2023-07-29T03:31:02;2.42;;;1.55;;
23567;SDS011;11962;50.838;4.430;2023-07-29T03:33:28;1.95;;;1.50;;
23567;SDS011;11962;50.838;4.430;2023-07-29T03:35:54;2.28;;;1.42;;
23567;SDS011;11962;50.838;4.430;2023-07-29T03:38:20;2.67;;;1.40;;
23567;SDS011;11962;50.838;4.430;2023-07-29T03:40:46;3.15;;;1.40;;
23567;SDS011;11962;50.838;4.430;2023-07-29T03:43:12;3.75;;;1.48;;
23567;SDS011;11962;50.838;4.430;2023-07-29T03:45:39;1.50;;;1.40;;
23567;SDS011;11962;50.838;4.430;2023-07-29T03:48:05;4.32;;;1.90;;
23567;SDS011;11962;50.838;4.430;2023-07-29T03:50:32;5.82;;;1.58;;
23567;SDS011;11962;50.838;4.430;2023-07-29T03:53:00;1.80;;;1.42;;
23567;SDS011;11962;50.838;4.430;2023-07-29T03:55:26;2.13;;;1.70;;
23567;SDS011;11962;50.838;4.430;2023-07-29T03:57:52;1.90;;;1.38;;
23567;SDS011;11962;50.838;4.430;2023-07-29T04:00:18;3.38;;;1.70;;
23567;SDS011;11962;50.838;4.430;2023-07-29T04:02:43;4.45;;;1.67;;
23567;SDS011;11962;50.838;4.430;2023-07-29T04:05:10;3.72;;;1.65;;
23567;SDS011;11962;50.838;4.430;2023-07-29T04:07:36;2.15;;;1.70;;
23567;SDS011;11962;50.838;4.430;2023-07-29T04:10:02;2.78;;;1.55;;
23567;SDS011;11962;50.838;4.430;2023-07-29T04:12:29;6.68;;;1.90;;
23567;SDS011;11962;50.838;4.430;2023-07-29T04:14:55;2.90;;;1.67;;
23567;SDS011;11962;50.838;4.430;2023-07-29T04:17:21;7.38;;;1.52;;
23567;SDS011;11962;50.838;4.430;2023-07-29T04:19:46;2.90;;;1.65;;
23567;SDS011;11962;50.838;4.430;2023-07-29T04:22:12;3.45;;;1.50;;
23567;SDS011;11962;50.838;4.430;2023-07-29T04:24:39;2.50;;;1.58;;
23567;SDS011;11962;50.838;4.430;2023-07-29T04:27:05;1.90;;;1.58;;
23567;SDS011;11962;50.838;4.430;2023-07-29T04:29:31;3.38;;;1.60;;
23567;SDS011;11962;50.838;4.430;2023-07-29T04:31:56;2.08;;;1.40;;
23567;SDS011;11962;50.838;4.430;2023-07-29T04:34:22;1.75;;;1.58;;
23567;SDS011;11962;50.838;4.430;2023-07-29T04:36:48;3.00;;;1.50;;
23567;SDS011;11962;50.838;4.430;2023-07-29T04:39:14;2.72;;;1.52;;
23567;SDS011;11962;50.838;4.430;2023-07-29T04:41:40;4.20;;;1.80;;
23567;SDS011;11962;50.838;4.430;2023-07-29T04:44:06;2.25;;;1.67;;
23567;SDS011;11962;50.838;4.430;2023-07-29T04:46:32;4.32;;;1.40;;
23567;SDS011;11962;50.838;4.430;2023-07-29T04:48:58;1.77;;;1.40;;
23567;SDS011;11962;50.838;4.430;2023-07-29T04:51:24;3.25;;;1.80;;
23567;SDS011;11962;50.838;4.430;2023-07-29T04:53:50;4.03;;;1.33;;
23567;SDS011;11962;50.838;4.430;2023-07-29T04:56:15;2.13;;;1.45;;
23567;SDS011;11962;50.838;4.430;2023-07-29T04:58:41;2.38;;;1.48;;
23567;SDS011;11962;50.838;4.430;2023-07-29T05:01:07;3.28;;;1.80;;
23567;SDS011;11962;50.838;4.430;2023-07-29T05:03:33;3.80;;;1.70;;
23567;SDS011;11962;50.838;4.430;2023-07-29T05:05:59;2.20;;;1.50;;
23567;SDS011;11962;50.838;4.430;2023-07-29T05:08:28;5.15;;;1.60;;
23567;SDS011;11962;50.838;4.430;2023-07-29T05:10:54;3.17;;;1.48;;
23567;SDS011;11962;50.838;4.430;2023-07-29T05:13:20;2.42;;;1.50;;
23567;SDS011;11962;50.838;4.430;2023-07-29T05:15:47;3.75;;;1.35;;
23567;SDS011;11962;50.838;4.430;2023-07-29T05:18:13;2.22;;;1.58;;
23567;SDS011;11962;50.838;4.430;2023-07-29T05:20:40;2.63;;;1.40;;
23567;SDS011;11962;50.838;4.430;2023-07-29T05:23:06;1.45;;;1.10;;
23567;SDS011;11962;50.838;4.430;2023-07-29T05:25:32;3.63;;;1.42;;
23567;SDS011;11962;50.838;4.430;2023-07-29T05:27:59;4.38;;;1.55;;
23567;SDS011;11962;50.838;4.430;2023-07-29T05:30:26;1.88;;;1.15;;
23567;SDS011;11962;50.838;4.430;2023-07-29T05:32:55;2.83;;;1.30;;
23567;SDS011;11962;50.838;4.430;2023-07-29T05:35:24;3.83;;;1.50;;
23567;SDS011;11962;50.838;4.430;2023-07-29T05:37:50;3.85;;;1.20;;
23567;SDS011;11962;50.838;4.430;2023-07-29T05:40:16;4.05;;;1.40;;
23567;SDS011;11962;50.838;4.430;2023-07-29T05:42:42;3.53;;;1.15;;
23567;SDS011;11962;50.838;4.430;2023-07-29T05:45:09;1.83;;;1.10;;
23567;SDS011;11962;50.838;4.430;2023-07-29T05:47:35;3.50;;;1.30;;
23567;SDS011;11962;50.838;4.430;2023-07-29T05:50:01;2.63;;;1.10;;
23567;SDS011;11962;50.838;4.430;2023-07-29T05:52:29;3.97;;;1.42;;
23567;SDS011;11962;50.838;4.430;2023-07-29T05:54:58;1.80;;;0.98;;
23567;SDS011;11962;50.838;4.430;2023-07-29T05:57:24;2.20;;;1.10;;
23567;SDS011;11962;50.838;4.430;2023-07-29T05:59:50;2.40;;;1.40;;
23567;SDS011;11962;50.838;4.430;2023-07-29T06:02:16;3.17;;;1.10;;
23567;SDS011;11962;50.838;4.430;2023-07-29T06:04:41;1.30;;;0.93;;
23567;SDS011;11962;50.838;4.430;2023-07-29T06:07:07;2.95;;;1.23;;
23567;SDS011;11962;50.838;4.430;2023-07-29T06:09:33;3.63;;;1.30;;
23567;SDS011;11962;50.838;4.430;2023-07-29T06:11:59;1.67;;;0.77;;
23567;SDS011;11962;50.838;4.430;2023-07-29T06:14:25;1.75;;;1.10;;
23567;SDS011;11962;50.838;4.430;2023-07-29T06:16:51;6.30;;;1.13;;
23567;SDS011;11962;50.838;4.430;2023-07-29T06:19:17;3.08;;;1.13;;
23567;SDS011;11962;50.838;4.430;2023-07-29T06:21:44;1.90;;;1.00;;
23567;SDS011;11962;50.838;4.430;2023-07-29T06:24:10;1.45;;;0.80;;
23567;SDS011;11962;50.838;4.430;2023-07-29T06:26:36;5.00;;;1.00;;
23567;SDS011;11962;50.838;4.430;2023-07-29T06:29:02;2.60;;;0.90;;
23567;SDS011;11962;50.838;4.430;2023-07-29T06:31:27;3.13;;;1.08;;
23567;SDS011;11962;50.838;4.430;2023-07-29T06:33:54;2.13;;;0.68;;
23567;SDS011;11962;50.838;4.430;2023-07-29T06:36:20;1.75;;;0.90;;
23567;SDS011;11962;50.838;4.430;2023-07-29T06:38:46;2.30;;;0.95;;
23567;SDS011;11962;50.838;4.430;2023-07-29T06:41:12;0.95;;;0.80;;
23567;SDS011;11962;50.838;4.430;2023-07-29T06:43:37;3.42;;;1.08;;
23567;SDS011;11962;50.838;4.430;2023-07-29T06:46:03;1.63;;;0.80;;
23567;SDS011;11962;50.838;4.430;2023-07-29T06:48:29;1.40;;;0.77;;
23567;SDS011;11962;50.838;4.430;2023-07-29T06:50:55;2.92;;;0.90;;
23567;SDS011;11962;50.838;4.430;2023-07-29T06:53:25;1.02;;;0.82;;
23567;SDS011;11962;50.838;4.430;2023-07-29T06:55:53;0.98;;;0.80;;
23567;SDS011;11962;50.838;4.430;2023-07-29T06:58:19;2.28;;;1.05;;
23567;SDS011;11962;50.838;4.430;2023-07-29T07:00:45;2.67;;;0.80;;
23567;SDS011;11962;50.838;4.430;2023-07-29T07:03:11;1.50;;;0.90;;
23567;SDS011;11962;50.838;4.430;2023-07-29T07:05:37;2.45;;;0.82;;
23567;SDS011;11962;50.838;4.430;2023-07-29T07:08:03;1.70;;;1.00;;
23567;SDS011;11962;50.838;4.430;2023-07-29T07:10:29;3.58;;;0.88;;
23567;SDS011;11962;50.838;4.430;2023-07-29T07:12:54;2.28;;;0.90;;
23567;SDS011;11962;50.838;4.430;2023-07-29T07:15:20;1.10;;;0.90;;
23567;SDS011;11962;50.838;4.430;2023-07-29T07:17:46;1.88;;;1.17;;
23567;SDS011;11962;50.838;4.430;2023-07-29T07:20:12;1.73;;;0.88;;
23567;SDS011;11962;50.838;4.430;2023-07-29T07:22:37;2.47;;;1.30;;
23567;SDS011;11962;50.838;4.430;2023-07-29T07:25:04;2.00;;;0.80;;
23567;SDS011;11962;50.838;4.430;2023-07-29T07:27:30;1.33;;;1.00;;
23567;SDS011;11962;50.838;4.430;2023-07-29T07:29:55;0.90;;;0.75;;
23567;SDS011;11962;50.838;4.430;2023-07-29T07:32:21;1.52;;;0.80;;
23567;SDS011;11962;50.838;4.430;2023-07-29T07:34:47;2.00;;;1.00;;
23567;SDS011;11962;50.838;4.430;2023-07-29T07:37:13;3.08;;;0.88;;
23567;SDS011;11962;50.838;4.430;2023-07-29T07:39:38;1.50;;;1.00;;
23567;SDS011;11962;50.838;4.430;2023-07-29T07:42:04;1.98;;;1.05;;
23567;SDS011;11962;50.838;4.430;2023-07-29T07:44:30;1.92;;;1.20;;
23567;SDS011;11962;50.838;4.430;2023-07-29T07:46:56;4.25;;;1.10;;
23567;SDS011;11962;50.838;4.430;2023-07-29T07:49:22;4.88;;;1.30;;
23567;SDS011;11962;50.838;4.430;2023-07-29T07:51:48;5.82;;;1.02;;
23567;SDS011;11962;50.838;4.430;2023-07-29T07:54:13;1.88;;;1.08;;
23567;SDS011;11962;50.838;4.430;2023-07-29T07:56:39;2.95;;;0.90;;
23567;SDS011;11962;50.838;4.430;2023-07-29T07:59:05;3.25;;;1.17;;
23567;SDS011;11962;50.838;4.430;2023-07-29T08:01:37;2.50;;;1.00;;
23567;SDS011;11962;50.838;4.430;2023-07-29T08:04:04;1.60;;;0.85;;
23567;SDS011;11962;50.838;4.430;2023-07-29T08:06:30;3.63;;;1.10;;
23567;SDS011;11962;50.838;4.430;2023-07-29T08:08:57;2.90;;;1.00;;
23567;SDS011;11962;50.838;4.430;2023-07-29T08:11:23;1.08;;;0.80;;
23567;SDS011;11962;50.838;4.430;2023-07-29T08:13:49;1.23;;;1.10;;
23567;SDS011;11962;50.838;4.430;2023-07-29T08:16:15;1.25;;;0.80;;
23567;SDS011;11962;50.838;4.430;2023-07-29T08:18:40;0.65;;;0.65;;
23567;SDS011;11962;50.838;4.430;2023-07-29T08:21:06;2.45;;;0.90;;
23567;SDS011;11962;50.838;4.430;2023-07-29T08:23:33;0.90;;;0.70;;
23567;SDS011;11962;50.838;4.430;2023-07-29T08:26:00;2.85;;;1.10;;
23567;SDS011;11962;50.838;4.430;2023-07-29T08:30:53;1.15;;;0.80;;
23567;SDS011;11962;50.838;4.430;2023-07-29T08:33:19;2.80;;;0.90;;
23567;SDS011;11962;50.838;4.430;2023-07-29T08:35:45;3.33;;;0.80;;
23567;SDS011;11962;50.838;4.430;2023-07-29T08:38:11;2.47;;;0.70;;
23567;SDS011;11962;50.838;4.430;2023-07-29T08:40:37;4.60;;;0.90;;
23567;SDS011;11962;50.838;4.430;2023-07-29T08:43:10;1.48;;;0.70;;
23567;SDS011;11962;50.838;4.430;2023-07-29T08:45:39;1.65;;;0.60;;
23567;SDS011;11962;50.838;4.430;2023-07-29T08:48:08;2.30;;;0.80;;
23567;SDS011;11962;50.838;4.430;2023-07-29T08:50:36;1.83;;;0.60;;
23567;SDS011;11962;50.838;4.430;2023-07-29T08:53:05;1.95;;;0.85;;
23567;SDS011;11962;50.838;4.430;2023-07-29T08:55:31;0.93;;;0.60;;
23567;SDS011;11962;50.838;4.430;2023-07-29T08:57:58;2.47;;;0.85;;
23567;SDS011;11962;50.838;4.430;2023-07-29T09:00:25;3.03;;;0.68;;
23567;SDS011;11962;50.838;4.430;2023-07-29T09:02:51;1.50;;;0.85;;
23567;SDS011;11962;50.838;4.430;2023-07-29T09:05:17;1.90;;;1.00;;
23567;SDS011;11962;50.838;4.430;2023-07-29T09:07:44;0.90;;;0.60;;
23567;SDS011;11962;50.838;4.430;2023-07-29T09:12:38;1.20;;;0.70;;
23567;SDS011;11962;50.838;4.430;2023-07-29T09:15:05;3.17;;;0.80;;
23567;SDS011;11962;50.838;4.430;2023-07-29T09:17:34;1.73;;;0.90;;
23567;SDS011;11962;50.838;4.430;2023-07-29T09:20:00;1.23;;;0.90;;
23567;SDS011;11962;50.838;4.430;2023-07-29T09:22:26;0.88;;;0.80;;
23567;SDS011;11962;50.838;4.430;2023-07-29T09:24:52;3.67;;;1.00;;
23567;SDS011;11962;50.838;4.430;2023-07-29T09:27:25;1.40;;;0.90;;
23567;SDS011;11962;50.838;4.430;2023-07-29T09:29:52;1.05;;;0.80;;
23567;SDS011;11962;50.838;4.430;2023-07-29T09:32:21;1.43;;;1.03;;
23567;SDS011;11962;50.838;4.430;2023-07-29T09:34:48;3.08;;;1.00;;
23567;SDS011;11962;50.838;4.430;2023-07-29T09:37:18;1.20;;;0.98;;
23567;SDS011;11962;50.838;4.430;2023-07-29T09:39:47;1.65;;;0.93;;
23567;SDS011;11962;50.838;4.430;2023-07-29T09:42:17;1.63;;;1.10;;
23567;SDS011;11962;50.838;4.430;2023-07-29T09:44:45;1.00;;;0.90;;
23567;SDS011;11962;50.838;4.430;2023-07-29T09:47:18;1.67;;;0.88;;
23567;SDS011;11962;50.838;4.430;2023-07-29T09:49:45;1.95;;;0.85;;
23567;SDS011;11962;50.838;4.430;2023-07-29T09:52:11;1.20;;;1.02;;
23567;SDS011;11962;50.838;4.430;2023-07-29T09:57:05;3.47;;;1.10;;
23567;SDS011;11962;50.838;4.430;2023-07-29T09:59:35;1.13;;;1.00;;
23567;SDS011;11962;50.838;4.430;2023-07-29T10:02:01;2.50;;;1.08;;
23567;SDS011;11962;50.838;4.430;2023-07-29T10:04:26;1.20;;;1.10;;
23567;SDS011;11962;50.838;4.430;2023-07-29T10:06:54;2.83;;;0.90;;
23567;SDS011;11962;50.838;4.430;2023-07-29T10:09:20;8.93;;;1.13;;
23567;SDS011;11962;50.838;4.430;2023-07-29T10:11:46;2.72;;;0.90;;
23567;SDS011;11962;50.838;4.430;2023-07-29T10:14:12;3.55;;;1.08;;
23567;SDS011;11962;50.838;4.430;2023-07-29T10:16:39;3.13;;;1.30;;
23567;SDS011;11962;50.838;4.430;2023-07-29T10:19:07;1.95;;;1.13;;
23567;SDS011;11962;50.838;4.430;2023-07-29T10:21:33;1.73;;;1.10;;
23567;SDS011;11962;50.838;4.430;2023-07-29T10:24:03;1.45;;;0.82;;
23567;SDS011;11962;50.838;4.430;2023-07-29T10:26:34;1.38;;;0.93;;
23567;SDS011;11962;50.838;4.430;2023-07-29T10:29:04;2.17;;;1.13;;
23567;SDS011;11962;50.838;4.430;2023-07-29T10:31:33;1.88;;;1.20;;
23567;SDS011;11962;50.838;4.430;2023-07-29T10:34:00;3.30;;;1.25;;
23567;SDS011;11962;50.838;4.430;2023-07-29T10:36:27;1.80;;;1.33;;
23567;SDS011;11962;50.838;4.430;2023-07-29T10:38:53;1.70;;;1.08;;
23567;SDS011;11962;50.838;4.430;2023-07-29T10:41:19;4.13;;;1.63;;
23567;SDS011;11962;50.838;4.430;2023-07-29T10:43:45;1.83;;;1.10;;
23567;SDS011;11962;50.838;4.430;2023-07-29T10:46:17;2.95;;;1.30;;
23567;SDS011;11962;50.838;4.430;2023-07-29T10:48:44;1.88;;;1.10;;
23567;SDS011;11962;50.838;4.430;2023-07-29T10:56:35;3.47;;;1.20;;
23567;SDS011;11962;50.838;4.430;2023-07-29T11:15:23;2.90;;;1.40;;
23567;SDS011;11962;50.838;4.430;2023-07-29T11:17:54;3.58;;;1.60;;
23567;SDS011;11962;50.838;4.430;2023-07-29T11:20:22;1.80;;;1.60;;
23567;SDS011;11962;50.838;4.430;2023-07-29T11:22:53;1.40;;;1.30;;
23567;SDS011;11962;50.838;4.430;2023-07-29T11:25:23;1.70;;;1.33;;
23567;SDS011;11962;50.838;4.430;2023-07-29T11:27:53;3.05;;;1.50;;
23567;SDS011;11962;50.838;4.430;2023-07-29T11:30:20;1.30;;;1.20;;
23567;SDS011;11962;50.838;4.430;2023-07-29T11:32:48;3.85;;;1.25;;
23567;SDS011;11962;50.838;4.430;2023-07-29T11:35:15;2.03;;;1.40;;
23567;SDS011;11962;50.838;4.430;2023-07-29T11:40:09;2.35;;;1.30;;
23567;SDS011;11962;50.838;4.430;2023-07-29T11:42:38;2.28;;;1.00;;
23567;SDS011;11962;50.838;4.430;2023-07-29T11:45:04;1.58;;;1.25;;
23567;SDS011;11962;50.838;4.430;2023-07-29T11:47:34;2.67;;;1.20;;
23567;SDS011;11962;50.838;4.430;2023-07-29T11:50:02;1.38;;;1.10;;
23567;SDS011;11962;50.838;4.430;2023-07-29T11:52:34;1.42;;;1.30;;
23567;SDS011;11962;50.838;4.430;2023-07-29T11:55:01;2.22;;;1.40;;
23567;SDS011;11962;50.838;4.430;2023-07-29T11:57:29;3.03;;;1.17;;
23567;SDS011;11962;50.838;4.430;2023-07-29T12:00:03;2.05;;;1.45;;
23567;SDS011;11962;50.838;4.430;2023-07-29T12:02:36;1.38;;;1.27;;
23567;SDS011;11962;50.838;4.430;2023-07-29T12:05:04;3.38;;;1.20;;
23567;SDS011;11962;50.838;4.430;2023-07-29T12:07:31;1.83;;;1.27;;
23567;SDS011;11962;50.838;4.430;2023-07-29T12:09:58;3.50;;;1.40;;
23567;SDS011;11962;50.838;4.430;2023-07-29T12:12:24;2.15;;;1.48;;
23567;SDS011;11962;50.838;4.430;2023-07-29T12:14:50;1.77;;;1.23;;
23567;SDS011;11962;50.838;4.430;2023-07-29T12:17:16;2.00;;;1.42;;
23567;SDS011;11962;50.838;4.430;2023-07-29T12:19:43;3.22;;;1.75;;
23567;SDS011;11962;50.838;4.430;2023-07-29T12:22:09;1.98;;;1.40;;
23567;SDS011;11962;50.838;4.430;2023-07-29T12:24:37;1.70;;;1.50;;
23567;SDS011;11962;50.838;4.430;2023-07-29T12:27:05;2.17;;;1.98;;
23567;SDS011;11962;50.838;4.430;2023-07-29T12:29:39;2.65;;;2.00;;
23567;SDS011;11962;50.838;4.430;2023-07-29T12:32:06;1.70;;;1.60;;
23567;SDS011;11962;50.838;4.430;2023-07-29T12:34:32;1.85;;;1.50;;
23567;SDS011;11962;50.838;4.430;2023-07-29T12:36:58;2.45;;;1.63;;
23567;SDS011;11962;50.838;4.430;2023-07-29T12:39:25;2.97;;;1.65;;
23567;SDS011;11962;50.838;4.430;2023-07-29T12:41:52;2.20;;;1.73;;
23567;SDS011;11962;50.838;4.430;2023-07-29T12:44:20;2.35;;;1.65;;
23567;SDS011;11962;50.838;4.430;2023-07-29T12:46:45;2.13;;;1.55;;
23567;SDS011;11962;50.838;4.430;2023-07-29T12:49:11;1.67;;;1.30;;
23567;SDS011;11962;50.838;4.430;2023-07-29T12:51:37;2.03;;;1.55;;
23567;SDS011;11962;50.838;4.430;2023-07-29T12:54:03;1.88;;;1.10;;
23567;SDS011;11962;50.838;4.430;2023-07-29T12:56:30;2.22;;;1.50;;
23567;SDS011;11962;50.838;4.430;2023-07-29T12:59:00;1.35;;;1.25;;
23567;SDS011;11962;50.838;4.430;2023-07-29T13:01:27;2.13;;;1.60;;
23567;SDS011;11962;50.838;4.430;2023-07-29T13:03:53;1.52;;;1.42;;
23567;SDS011;11962;50.838;4.430;2023-07-29T13:06:19;1.88;;;1.77;;
23567;SDS011;11962;50.838;4.430;2023-07-29T13:08:45;2.95;;;1.60;;
23567;SDS011;11962;50.838;4.430;2023-07-29T13:11:12;1.85;;;1.45;;
23567;SDS011;11962;50.838;4.430;2023-07-29T13:13:38;1.85;;;1.48;;
23567;SDS011;11962;50.838;4.430;2023-07-29T13:16:04;2.67;;;1.50;;
23567;SDS011;11962;50.838;4.430;2023-07-29T13:18:29;1.75;;;1.52;;
23567;SDS011;11962;50.838;4.430;2023-07-29T13:20:55;1.40;;;1.30;;
23567;SDS011;11962;50.838;4.430;2023-07-29T13:23:21;2.00;;;1.50;;
23567;SDS011;11962;50.838;4.430;2023-07-29T13:25:47;2.08;;;1.40;;
23567;SDS011;11962;50.838;4.430;2023-07-29T13:28:13;1.52;;;1.42;;
23567;SDS011;11962;50.838;4.430;2023-07-29T13:30:39;1.40;;;1.30;;
23567;SDS011;11962;50.838;4.430;2023-07-29T13:33:08;2.53;;;1.63;;
23567;SDS011;11962;50.838;4.430;2023-07-29T13:35:34;1.40;;;1.30;;
23567;SDS011;11962;50.838;4.430;2023-07-29T13:38:00;1.95;;;1.20;;
23567;SDS011;11962;50.838;4.430;2023-07-29T13:40:26;1.55;;;1.30;;
23567;SDS011;11962;50.838;4.430;2023-07-29T13:42:52;3.28;;;1.33;;
23567;SDS011;11962;50.838;4.430;2023-07-29T13:45:18;1.63;;;1.40;;
23567;SDS011;11962;50.838;4.430;2023-07-29T13:47:44;1.42;;;1.33;;
23567;SDS011;11962;50.838;4.430;2023-07-29T13:50:10;1.40;;;1.10;;
23567;SDS011;11962;50.838;4.430;2023-07-29T13:52:37;1.40;;;1.30;;
23567;SDS011;11962;50.838;4.430;2023-07-29T13:55:03;1.48;;;1.38;;
23567;SDS011;11962;50.838;4.430;2023-07-29T13:57:30;2.20;;;1.20;;
23567;SDS011;11962;50.838;4.430;2023-07-29T13:59:56;2.25;;;0.90;;
23567;SDS011;11962;50.838;4.430;2023-07-29T14:02:22;1.05;;;0.95;;
23567;SDS011;11962;50.838;4.430;2023-07-29T14:04:48;2.63;;;0.90;;
23567;SDS011;11962;50.838;4.430;2023-07-29T14:07:14;1.23;;;0.85;;
23567;SDS011;11962;50.838;4.430;2023-07-29T14:09:41;2.38;;;0.70;;
23567;SDS011;11962;50.838;4.430;2023-07-29T14:12:08;1.20;;;0.98;;
23567;SDS011;11962;50.838;4.430;2023-07-29T14:14:37;0.80;;;0.80;;
23567;SDS011;11962;50.838;4.430;2023-07-29T14:17:03;1.48;;;0.80;;
23567;SDS011;11962;50.838;4.430;2023-07-29T14:19:29;1.50;;;0.88;;
23567;SDS011;11962;50.838;4.430;2023-07-29T14:21:56;1.55;;;1.08;;
23567;SDS011;11962;50.838;4.430;2023-07-29T14:24:21;0.80;;;0.70;;
23567;SDS011;11962;50.838;4.430;2023-07-29T14:26:47;1.83;;;1.10;;
23567;SDS011;11962;50.838;4.430;2023-07-29T14:29:13;1.80;;;1.02;;
23567;SDS011;11962;50.838;4.430;2023-07-29T14:31:39;2.70;;;0.90;;
23567;SDS011;11962;50.838;4.430;2023-07-29T14:34:05;1.45;;;0.90;;
23567;SDS011;11962;50.838;4.430;2023-07-29T14:36:30;3.15;;;1.00;;
23567;SDS011;11962;50.838;4.430;2023-07-29T14:38:56;0.80;;;0.80;;
23567;SDS011;11962;50.838;4.430;2023-07-29T14:41:22;2.60;;;0.90;;
23567;SDS011;11962;50.838;4.430;2023-07-29T14:43:48;1.25;;;0.80;;
23567;SDS011;11962;50.838;4.430;2023-07-29T14:46:13;1.10;;;1.00;;
23567;SDS011;11962;50.838;4.430;2023-07-29T14:48:39;1.77;;;0.82;;
23567;SDS011;11962;50.838;4.430;2023-07-29T14:51:05;0.90;;;0.80;;
23567;SDS011;11962;50.838;4.430;2023-07-29T14:53:30;2.45;;;1.08;;
23567;SDS011;11962;50.838;4.430;2023-07-29T14:55:56;1.20;;;1.10;;
23567;SDS011;11962;50.838;4.430;2023-07-29T14:58:22;1.13;;;1.00;;
23567;SDS011;11962;50.838;4.430;2023-07-29T15:00:50;4.78;;;1.10;;
23567;SDS011;11962;50.838;4.430;2023-07-29T15:03:16;1.25;;;1.15;;
23567;SDS011;11962;50.838;4.430;2023-07-29T15:05:42;1.10;;;1.00;;
23567;SDS011;11962;50.838;4.430;2023-07-29T15:08:08;1.88;;;1.10;;
23567;SDS011;11962;50.838;4.430;2023-07-29T15:10:34;1.60;;;1.08;;
23567;SDS011;11962;50.838;4.430;2023-07-29T15:13:00;1.08;;;0.90;;
23567;SDS011;11962;50.838;4.430;2023-07-29T15:15:26;1.60;;;1.10;;
23567;SDS011;11962;50.838;4.430;2023-07-29T15:17:51;2.58;;;0.90;;
23567;SDS011;11962;50.838;4.430;2023-07-29T15:20:18;0.90;;;0.80;;